sensor_id;sensor_type;location;lat;lon;timestamp;P1;durP1;ratioP1;P2;durP2;ratioP2
16099;SDS011;8154;50.830;12.082;2023-03-01T00:01:07;3.80;;;3.50;;
16099;SDS011;8154;50.830;12.082;2023-03-01T00:03:35;3.67;;;3.38;;
16099;SDS011;8154;50.830;12.082;2023-03-01T00:06:01;3.90;;;3.60;;
16099;SDS011;8154;50.830;12.082;2023-03-01T00:08:28;3.88;;;3.58;;
16099;SDS011;8154;50.830;12.082;2023-03-01T00:11:06;3.78;;;3.47;;
16099;SDS011;8154;50.830;12.082;2023-03-01T00:13:34;3.80;;;3.50;;
16099;SDS011;8154;50.830;12.082;2023-03-01T00:16:04;3.90;;;3.60;;
16099;SDS011;8154;50.830;12.082;2023-03-01T00:18:33;4.00;;;3.70;;
16099;SDS011;8154;50.830;12.082;2023-03-01T00:20:59;3.65;;;3.35;;
16099;SDS011;8154;50.830;12.082;2023-03-01T00:23:25;3.72;;;3.42;;
16099;SDS011;8154;50.830;12.082;2023-03-01T00:25:53;3.72;;;3.42;;
16099;SDS011;8154;50.830;12.082;2023-03-01T00:28:20;3.70;;;3.40;;
16099;SDS011;8154;50.830;12.082;2023-03-01T00:30:46;3.58;;;3.30;;
16099;SDS011;8154;50.830;12.082;2023-03-01T00:33:13;3.70;;;3.40;;
16099;SDS011;8154;50.830;12.082;2023-03-01T00:35:39;3.60;;;3.30;;
16099;SDS011;8154;50.830;12.082;2023-03-01T00:38:05;3.92;;;3.63;;
16099;SDS011;8154;50.830;12.082;2023-03-01T00:40:33;3.80;;;3.50;;
16099;SDS011;8154;50.830;12.082;2023-03-01T00:43:00;3.70;;;3.40;;
16099;SDS011;8154;50.830;12.082;2023-03-01T00:45:27;3.85;;;3.55;;
16099;SDS011;8154;50.830;12.082;2023-03-01T00:47:53;3.60;;;3.30;;
16099;SDS011;8154;50.830;12.082;2023-03-01T00:50:20;3.85;;;3.55;;
16099;SDS011;8154;50.830;12.082;2023-03-01T00:52:46;3.63;;;3.33;;
16099;SDS011;8154;50.830;12.082;2023-03-01T00:55:12;3.88;;;3.58;;
16099;SDS011;8154;50.830;12.082;2023-03-01T00:57:38;3.80;;;3.50;;
16099;SDS011;8154;50.830;12.082;2023-03-01T02:01:21;4.10;;;3.80;;
16099;SDS011;8154;50.830;12.082;2023-03-01T02:03:47;3.65;;;3.35;;
16099;SDS011;8154;50.830;12.082;2023-03-01T02:06:19;3.97;;;3.67;;
16099;SDS011;8154;50.830;12.082;2023-03-01T02:09:00;4.15;;;3.83;;
16099;SDS011;8154;50.830;12.082;2023-03-01T02:11:32;3.67;;;3.38;;
16099;SDS011;8154;50.830;12.082;2023-03-01T02:14:00;4.00;;;3.70;;
16099;SDS011;8154;50.830;12.082;2023-03-01T02:16:26;3.97;;;3.67;;
16099;SDS011;8154;50.830;12.082;2023-03-01T02:18:52;3.80;;;3.50;;
16099;SDS011;8154;50.830;12.082;2023-03-01T02:23:47;4.28;;;3.88;;
16099;SDS011;8154;50.830;12.082;2023-03-01T02:28:40;3.90;;;3.60;;
16099;SDS011;8154;50.830;12.082;2023-03-01T02:31:09;3.80;;;3.50;;
16099;SDS011;8154;50.830;12.082;2023-03-01T02:33:55;3.80;;;3.50;;
16099;SDS011;8154;50.830;12.082;2023-03-01T02:36:28;3.50;;;3.20;;
16099;SDS011;8154;50.830;12.082;2023-03-01T02:38:57;3.63;;;3.33;;
16099;SDS011;8154;50.830;12.082;2023-03-01T02:41:26;3.97;;;3.67;;
16099;SDS011;8154;50.830;12.082;2023-03-01T02:43:54;3.80;;;3.50;;
16099;SDS011;8154;50.830;12.082;2023-03-01T02:46:22;3.70;;;3.40;;
16099;SDS011;8154;50.830;12.082;2023-03-01T02:48:50;3.63;;;3.33;;
16099;SDS011;8154;50.830;12.082;2023-03-01T02:56:51;3.70;;;3.40;;
16099;SDS011;8154;50.830;12.082;2023-03-01T02:59:19;3.60;;;3.30;;
16099;SDS011;8154;50.830;12.082;2023-03-01T04:03:11;3.92;;;3.63;;
16099;SDS011;8154;50.830;12.082;2023-03-01T04:05:41;3.90;;;3.60;;
16099;SDS011;8154;50.830;12.082;2023-03-01T04:08:08;3.83;;;3.53;;
16099;SDS011;8154;50.830;12.082;2023-03-01T04:13:12;3.90;;;3.60;;
16099;SDS011;8154;50.830;12.082;2023-03-01T04:15:39;3.80;;;3.50;;
16099;SDS011;8154;50.830;12.082;2023-03-01T04:18:06;3.75;;;3.45;;
16099;SDS011;8154;50.830;12.082;2023-03-01T04:20:33;4.13;;;3.83;;
16099;SDS011;8154;50.830;12.082;2023-03-01T04:25:37;3.88;;;3.58;;
16099;SDS011;8154;50.830;12.082;2023-03-01T04:28:04;3.88;;;3.58;;
16099;SDS011;8154;50.830;12.082;2023-03-01T04:30:31;4.13;;;3.83;;
16099;SDS011;8154;50.830;12.082;2023-03-01T04:33:04;4.18;;;3.78;;
16099;SDS011;8154;50.830;12.082;2023-03-01T04:35:32;3.85;;;3.55;;
16099;SDS011;8154;50.830;12.082;2023-03-01T04:38:00;3.75;;;3.45;;
16099;SDS011;8154;50.830;12.082;2023-03-01T04:40:26;4.18;;;3.85;;
16099;SDS011;8154;50.830;12.082;2023-03-01T04:42:52;4.18;;;3.78;;
16099;SDS011;8154;50.830;12.082;2023-03-01T04:45:18;3.95;;;3.65;;
16099;SDS011;8154;50.830;12.082;2023-03-01T04:47:45;4.10;;;3.70;;
16099;SDS011;8154;50.830;12.082;2023-03-01T04:50:14;3.80;;;3.50;;
16099;SDS011;8154;50.830;12.082;2023-03-01T04:52:42;4.10;;;3.80;;
16099;SDS011;8154;50.830;12.082;2023-03-01T04:55:09;3.90;;;3.60;;
16099;SDS011;8154;50.830;12.082;2023-03-01T04:57:36;4.10;;;3.75;;
16099;SDS011;8154;50.830;12.082;2023-03-01T05:00:03;3.70;;;3.40;;
16099;SDS011;8154;50.830;12.082;2023-03-01T05:02:50;4.30;;;3.90;;
16099;SDS011;8154;50.830;12.082;2023-03-01T05:05:26;3.80;;;3.50;;
16099;SDS011;8154;50.830;12.082;2023-03-01T05:08:01;4.07;;;3.78;;
16099;SDS011;8154;50.830;12.082;2023-03-01T05:10:31;4.00;;;3.70;;
16099;SDS011;8154;50.830;12.082;2023-03-01T05:12:59;3.88;;;3.58;;
16099;SDS011;8154;50.830;12.082;2023-03-01T05:15:29;3.90;;;3.60;;
16099;SDS011;8154;50.830;12.082;2023-03-01T05:17:57;3.92;;;3.63;;
16099;SDS011;8154;50.830;12.082;2023-03-01T05:20:25;4.30;;;3.90;;
16099;SDS011;8154;50.830;12.082;2023-03-01T05:22:56;3.70;;;3.40;;
16099;SDS011;8154;50.830;12.082;2023-03-01T05:25:26;3.78;;;3.47;;
16099;SDS011;8154;50.830;12.082;2023-03-01T05:27:52;4.10;;;3.70;;
16099;SDS011;8154;50.830;12.082;2023-03-01T05:30:19;3.80;;;3.50;;
16099;SDS011;8154;50.830;12.082;2023-03-01T05:32:46;3.83;;;3.53;;
16099;SDS011;8154;50.830;12.082;2023-03-01T05:35:15;3.95;;;3.65;;
16099;SDS011;8154;50.830;12.082;2023-03-01T05:37:43;4.03;;;3.63;;
16099;SDS011;8154;50.830;12.082;2023-03-01T05:40:11;3.80;;;3.50;;
16099;SDS011;8154;50.830;12.082;2023-03-01T05:42:43;4.00;;;3.70;;
16099;SDS011;8154;50.830;12.082;2023-03-01T05:45:14;3.80;;;3.50;;
16099;SDS011;8154;50.830;12.082;2023-03-01T05:47:42;3.80;;;3.50;;
16099;SDS011;8154;50.830;12.082;2023-03-01T05:50:13;3.90;;;3.60;;
16099;SDS011;8154;50.830;12.082;2023-03-01T05:52:48;3.60;;;3.30;;
16099;SDS011;8154;50.830;12.082;2023-03-01T05:55:17;4.15;;;3.78;;
16099;SDS011;8154;50.830;12.082;2023-03-01T05:57:44;4.10;;;3.70;;
16099;SDS011;8154;50.830;12.082;2023-03-01T06:00:11;3.88;;;3.58;;
16099;SDS011;8154;50.830;12.082;2023-03-01T06:11:36;3.80;;;3.50;;
16099;SDS011;8154;50.830;12.082;2023-03-01T06:14:03;3.95;;;3.65;;
16099;SDS011;8154;50.830;12.082;2023-03-01T06:16:29;4.00;;;3.70;;
16099;SDS011;8154;50.830;12.082;2023-03-01T06:18:55;3.88;;;3.58;;
16099;SDS011;8154;50.830;12.082;2023-03-01T06:21:21;3.78;;;3.47;;
16099;SDS011;8154;50.830;12.082;2023-03-01T06:23:47;3.90;;;3.60;;
16099;SDS011;8154;50.830;12.082;2023-03-01T06:26:14;3.90;;;3.60;;
16099;SDS011;8154;50.830;12.082;2023-03-01T06:28:40;3.90;;;3.60;;
16099;SDS011;8154;50.830;12.082;2023-03-01T06:31:05;4.00;;;3.70;;
16099;SDS011;8154;50.830;12.082;2023-03-01T06:33:34;4.05;;;3.70;;
16099;SDS011;8154;50.830;12.082;2023-03-01T06:36:02;3.90;;;3.60;;
16099;SDS011;8154;50.830;12.082;2023-03-01T06:38:29;3.85;;;3.55;;
16099;SDS011;8154;50.830;12.082;2023-03-01T06:40:55;3.83;;;3.53;;
16099;SDS011;8154;50.830;12.082;2023-03-01T06:43:22;3.80;;;3.40;;
16099;SDS011;8154;50.830;12.082;2023-03-01T06:45:49;3.95;;;3.65;;
16099;SDS011;8154;50.830;12.082;2023-03-01T06:48:15;4.30;;;3.90;;
16099;SDS011;8154;50.830;12.082;2023-03-01T06:50:42;3.70;;;3.40;;
16099;SDS011;8154;50.830;12.082;2023-03-01T06:53:07;3.90;;;3.60;;
16099;SDS011;8154;50.830;12.082;2023-03-01T06:55:33;4.15;;;3.72;;
16099;SDS011;8154;50.830;12.082;2023-03-01T06:58:00;4.15;;;3.75;;
16099;SDS011;8154;50.830;12.082;2023-03-01T07:00:27;4.20;;;3.90;;
16099;SDS011;8154;50.830;12.082;2023-03-01T07:02:54;4.05;;;3.75;;
16099;SDS011;8154;50.830;12.082;2023-03-01T07:05:24;4.32;;;3.92;;
16099;SDS011;8154;50.830;12.082;2023-03-01T07:07:50;4.00;;;3.70;;
16099;SDS011;8154;50.830;12.082;2023-03-01T07:10:16;3.88;;;3.58;;
16099;SDS011;8154;50.830;12.082;2023-03-01T07:12:42;4.00;;;3.70;;
16099;SDS011;8154;50.830;12.082;2023-03-01T07:15:09;3.90;;;3.60;;
16099;SDS011;8154;50.830;12.082;2023-03-01T07:17:36;4.05;;;3.65;;
16099;SDS011;8154;50.830;12.082;2023-03-01T07:20:02;3.90;;;3.60;;
16099;SDS011;8154;50.830;12.082;2023-03-01T07:22:28;4.25;;;3.83;;
16099;SDS011;8154;50.830;12.082;2023-03-01T07:24:54;3.80;;;3.50;;
16099;SDS011;8154;50.830;12.082;2023-03-01T07:27:20;4.10;;;3.80;;
16099;SDS011;8154;50.830;12.082;2023-03-01T07:29:47;3.88;;;3.58;;
16099;SDS011;8154;50.830;12.082;2023-03-01T07:32:13;4.00;;;3.70;;
16099;SDS011;8154;50.830;12.082;2023-03-01T07:34:40;4.00;;;3.70;;
16099;SDS011;8154;50.830;12.082;2023-03-01T07:37:06;4.18;;;3.83;;
16099;SDS011;8154;50.830;12.082;2023-03-01T07:39:32;4.00;;;3.70;;
16099;SDS011;8154;50.830;12.082;2023-03-01T07:41:58;3.80;;;3.50;;
16099;SDS011;8154;50.830;12.082;2023-03-01T07:44:25;4.13;;;3.80;;
16099;SDS011;8154;50.830;12.082;2023-03-01T07:46:51;3.97;;;3.67;;
16099;SDS011;8154;50.830;12.082;2023-03-01T07:49:21;3.97;;;3.67;;
16099;SDS011;8154;50.830;12.082;2023-03-01T07:51:48;3.90;;;3.60;;
16099;SDS011;8154;50.830;12.082;2023-03-01T07:54:14;4.00;;;3.70;;
16099;SDS011;8154;50.830;12.082;2023-03-01T07:56:40;4.00;;;3.70;;
16099;SDS011;8154;50.830;12.082;2023-03-01T07:59:06;3.95;;;3.65;;
16099;SDS011;8154;50.830;12.082;2023-03-01T08:01:32;3.97;;;3.67;;
16099;SDS011;8154;50.830;12.082;2023-03-01T08:03:59;4.22;;;3.92;;
16099;SDS011;8154;50.830;12.082;2023-03-01T08:06:25;4.13;;;3.80;;
16099;SDS011;8154;50.830;12.082;2023-03-01T11:09:37;4.88;;;4.47;;
16099;SDS011;8154;50.830;12.082;2023-03-01T11:39:52;5.05;;;4.65;;
16099;SDS011;8154;50.830;12.082;2023-03-01T13:17:46;4.82;;;4.43;;
16099;SDS011;8154;50.830;12.082;2023-03-01T14:13:03;4.30;;;4.00;;
16099;SDS011;8154;50.830;12.082;2023-03-01T14:15:05;4.57;;;4.18;;
16099;SDS011;8154;50.830;12.082;2023-03-01T14:22:46;4.45;;;4.10;;
16099;SDS011;8154;50.830;12.082;2023-03-01T14:25:19;4.55;;;4.18;;
16099;SDS011;8154;50.830;12.082;2023-03-01T14:27:55;4.20;;;3.90;;
16099;SDS011;8154;50.830;12.082;2023-03-01T14:30:22;4.38;;;4.03;;
16099;SDS011;8154;50.830;12.082;2023-03-01T14:32:56;4.25;;;3.95;;
16099;SDS011;8154;50.830;12.082;2023-03-01T14:35:26;4.50;;;4.10;;
16099;SDS011;8154;50.830;12.082;2023-03-01T14:37:53;4.22;;;3.92;;
16099;SDS011;8154;50.830;12.082;2023-03-01T14:40:40;4.18;;;3.88;;
16099;SDS011;8154;50.830;12.082;2023-03-01T14:43:10;4.65;;;4.25;;
16099;SDS011;8154;50.830;12.082;2023-03-01T14:45:38;4.13;;;3.83;;
16099;SDS011;8154;50.830;12.082;2023-03-01T14:48:05;4.40;;;4.10;;
16099;SDS011;8154;50.830;12.082;2023-03-01T14:50:33;4.47;;;4.10;;
16099;SDS011;8154;50.830;12.082;2023-03-01T14:53:04;4.18;;;3.80;;
16099;SDS011;8154;50.830;12.082;2023-03-01T14:55:35;4.10;;;3.80;;
16099;SDS011;8154;50.830;12.082;2023-03-01T14:58:05;4.47;;;4.07;;
16099;SDS011;8154;50.830;12.082;2023-03-01T15:01:02;4.60;;;4.20;;
16099;SDS011;8154;50.830;12.082;2023-03-01T15:06:03;4.95;;;4.55;;
16099;SDS011;8154;50.830;12.082;2023-03-01T15:08:30;5.50;;;5.00;;
16099;SDS011;8154;50.830;12.082;2023-03-01T15:11:04;5.78;;;5.28;;
16099;SDS011;8154;50.830;12.082;2023-03-01T15:13:44;6.05;;;5.55;;
16099;SDS011;8154;50.830;12.082;2023-03-01T15:16:12;6.57;;;5.97;;
16099;SDS011;8154;50.830;12.082;2023-03-01T15:18:48;7.45;;;6.75;;
16099;SDS011;8154;50.830;12.082;2023-03-01T15:21:27;6.82;;;6.22;;
16099;SDS011;8154;50.830;12.082;2023-03-01T15:26:51;7.43;;;6.72;;
16099;SDS011;8154;50.830;12.082;2023-03-01T15:29:24;6.70;;;6.10;;
16099;SDS011;8154;50.830;12.082;2023-03-01T15:37:00;7.10;;;6.50;;
16099;SDS011;8154;50.830;12.082;2023-03-01T15:39:40;7.20;;;6.60;;
16099;SDS011;8154;50.830;12.082;2023-03-01T15:45:20;7.15;;;6.55;;
16099;SDS011;8154;50.830;12.082;2023-03-01T15:47:53;6.80;;;6.20;;
16099;SDS011;8154;50.830;12.082;2023-03-01T15:50:25;6.97;;;6.38;;
16099;SDS011;8154;50.830;12.082;2023-03-01T15:52:53;7.45;;;6.75;;
16099;SDS011;8154;50.830;12.082;2023-03-01T15:55:21;7.45;;;6.75;;
16099;SDS011;8154;50.830;12.082;2023-03-01T15:57:49;7.20;;;6.60;;
16099;SDS011;8154;50.830;12.082;2023-03-01T16:00:26;7.13;;;6.50;;
16099;SDS011;8154;50.830;12.082;2023-03-01T16:02:52;7.93;;;7.22;;
16099;SDS011;8154;50.830;12.082;2023-03-01T16:05:22;7.25;;;6.57;;
16099;SDS011;8154;50.830;12.082;2023-03-01T16:07:56;7.00;;;6.40;;
16099;SDS011;8154;50.830;12.082;2023-03-01T16:10:23;7.13;;;6.53;;
16099;SDS011;8154;50.830;12.082;2023-03-01T17:14:02;19.00;;;15.32;;
16099;SDS011;8154;50.830;12.082;2023-03-01T17:16:30;16.15;;;14.48;;
16099;SDS011;8154;50.830;12.082;2023-03-01T17:18:56;19.08;;;15.40;;
16099;SDS011;8154;50.830;12.082;2023-03-01T17:21:22;50.35;;;17.23;;
16099;SDS011;8154;50.830;12.082;2023-03-01T17:23:49;23.63;;;15.32;;
16099;SDS011;8154;50.830;12.082;2023-03-01T17:26:16;21.92;;;15.02;;
16099;SDS011;8154;50.830;12.082;2023-03-01T17:28:42;816.15;;;52.25;;
16099;SDS011;8154;50.830;12.082;2023-03-01T17:31:08;520.90;;;38.75;;
16099;SDS011;8154;50.830;12.082;2023-03-01T17:33:34;134.18;;;19.27;;
16099;SDS011;8154;50.830;12.082;2023-03-01T17:36:01;83.35;;;17.17;;
16099;SDS011;8154;50.830;12.082;2023-03-01T17:38:27;62.38;;;15.82;;
16099;SDS011;8154;50.830;12.082;2023-03-01T17:40:53;47.47;;;15.07;;
16099;SDS011;8154;50.830;12.082;2023-03-01T17:43:20;35.30;;;13.05;;
16099;SDS011;8154;50.830;12.082;2023-03-01T17:45:46;51.97;;;12.77;;
16099;SDS011;8154;50.830;12.082;2023-03-01T17:48:13;34.55;;;11.38;;
16099;SDS011;8154;50.830;12.082;2023-03-01T17:50:41;52.17;;;12.10;;
16099;SDS011;8154;50.830;12.082;2023-03-01T17:53:07;40.78;;;11.07;;
16099;SDS011;8154;50.830;12.082;2023-03-01T17:55:35;49.25;;;11.18;;
16099;SDS011;8154;50.830;12.082;2023-03-01T17:58:02;44.15;;;10.93;;
16099;SDS011;8154;50.830;12.082;2023-03-01T18:00:29;36.70;;;10.30;;
16099;SDS011;8154;50.830;12.082;2023-03-01T18:02:56;43.25;;;10.68;;
16099;SDS011;8154;50.830;12.082;2023-03-01T18:05:22;41.40;;;10.25;;
16099;SDS011;8154;50.830;12.082;2023-03-01T18:07:49;40.72;;;10.00;;
16099;SDS011;8154;50.830;12.082;2023-03-01T18:10:17;42.58;;;10.25;;
16099;SDS011;8154;50.830;12.082;2023-03-01T19:13:58;16.80;;;7.30;;
16099;SDS011;8154;50.830;12.082;2023-03-01T19:16:25;14.15;;;6.82;;
16099;SDS011;8154;50.830;12.082;2023-03-01T19:18:54;14.63;;;6.60;;
16099;SDS011;8154;50.830;12.082;2023-03-01T19:21:25;17.85;;;6.93;;
16099;SDS011;8154;50.830;12.082;2023-03-01T19:23:53;16.77;;;6.63;;
16099;SDS011;8154;50.830;12.082;2023-03-01T19:26:21;14.57;;;6.75;;
16099;SDS011;8154;50.830;12.082;2023-03-01T19:28:49;13.73;;;6.43;;
16099;SDS011;8154;50.830;12.082;2023-03-01T19:31:16;12.85;;;6.60;;
16099;SDS011;8154;50.830;12.082;2023-03-01T19:33:45;17.83;;;6.95;;
16099;SDS011;8154;50.830;12.082;2023-03-01T19:36:12;15.35;;;6.35;;
16099;SDS011;8154;50.830;12.082;2023-03-01T19:38:39;15.18;;;6.63;;
16099;SDS011;8154;50.830;12.082;2023-03-01T19:41:07;12.60;;;6.15;;
16099;SDS011;8154;50.830;12.082;2023-03-01T19:43:35;12.77;;;5.82;;
16099;SDS011;8154;50.830;12.082;2023-03-01T19:46:02;14.75;;;6.00;;
16099;SDS011;8154;50.830;12.082;2023-03-01T19:48:29;15.40;;;6.43;;
16099;SDS011;8154;50.830;12.082;2023-03-01T19:50:55;12.15;;;6.38;;
16099;SDS011;8154;50.830;12.082;2023-03-01T19:53:21;15.20;;;6.40;;
16099;SDS011;8154;50.830;12.082;2023-03-01T19:55:47;12.18;;;6.28;;
16099;SDS011;8154;50.830;12.082;2023-03-01T19:58:14;12.52;;;6.28;;
16099;SDS011;8154;50.830;12.082;2023-03-01T20:00:43;15.77;;;6.15;;
16099;SDS011;8154;50.830;12.082;2023-03-01T20:03:10;13.93;;;6.03;;
16099;SDS011;8154;50.830;12.082;2023-03-01T20:05:37;10.85;;;6.00;;
16099;SDS011;8154;50.830;12.082;2023-03-01T20:08:04;11.43;;;6.07;;
16099;SDS011;8154;50.830;12.082;2023-03-01T20:10:31;13.00;;;5.78;;
16099;SDS011;8154;50.830;12.082;2023-03-01T20:40:20;9.98;;;5.78;;
16099;SDS011;8154;50.830;12.082;2023-03-01T20:42:51;8.25;;;5.32;;
16099;SDS011;8154;50.830;12.082;2023-03-01T20:45:17;9.35;;;5.57;;
16099;SDS011;8154;50.830;12.082;2023-03-01T20:47:44;7.22;;;4.95;;
16099;SDS011;8154;50.830;12.082;2023-03-01T20:50:10;8.93;;;5.47;;
16099;SDS011;8154;50.830;12.082;2023-03-01T20:52:36;8.32;;;5.10;;
16099;SDS011;8154;50.830;12.082;2023-03-01T20:55:02;8.30;;;5.32;;
16099;SDS011;8154;50.830;12.082;2023-03-01T20:57:30;9.45;;;5.20;;
16099;SDS011;8154;50.830;12.082;2023-03-01T20:59:56;11.73;;;5.47;;
16099;SDS011;8154;50.830;12.082;2023-03-01T21:02:22;9.50;;;5.57;;
16099;SDS011;8154;50.830;12.082;2023-03-01T21:04:48;10.65;;;5.78;;
16099;SDS011;8154;50.830;12.082;2023-03-01T21:07:15;12.18;;;5.93;;
16099;SDS011;8154;50.830;12.082;2023-03-01T21:09:40;10.95;;;5.63;;
16099;SDS011;8154;50.830;12.082;2023-03-01T21:12:12;9.52;;;5.30;;
16099;SDS011;8154;50.830;12.082;2023-03-01T21:14:38;8.70;;;5.32;;
16099;SDS011;8154;50.830;12.082;2023-03-01T21:17:12;10.00;;;5.25;;
16099;SDS011;8154;50.830;12.082;2023-03-01T21:19:40;8.32;;;5.30;;
16099;SDS011;8154;50.830;12.082;2023-03-01T21:22:14;6.80;;;4.85;;
16099;SDS011;8154;50.830;12.082;2023-03-01T21:24:41;9.32;;;5.72;;
16099;SDS011;8154;50.830;12.082;2023-03-01T21:27:08;8.23;;;5.30;;
16099;SDS011;8154;50.830;12.082;2023-03-01T21:29:41;8.57;;;5.55;;
16099;SDS011;8154;50.830;12.082;2023-03-01T21:32:09;8.48;;;5.50;;
16099;SDS011;8154;50.830;12.082;2023-03-01T21:34:37;8.35;;;5.35;;
16099;SDS011;8154;50.830;12.082;2023-03-01T21:37:05;8.90;;;5.20;;
16099;SDS011;8154;50.830;12.082;2023-03-01T21:39:32;8.35;;;5.10;;
16099;SDS011;8154;50.830;12.082;2023-03-01T21:41:59;7.88;;;5.20;;
16099;SDS011;8154;50.830;12.082;2023-03-01T21:44:27;6.43;;;5.10;;
16099;SDS011;8154;50.830;12.082;2023-03-01T21:46:55;8.25;;;5.32;;
16099;SDS011;8154;50.830;12.082;2023-03-01T21:49:23;7.50;;;5.28;;
16099;SDS011;8154;50.830;12.082;2023-03-01T21:51:49;8.15;;;5.10;;
16099;SDS011;8154;50.830;12.082;2023-03-01T21:54:16;7.07;;;5.15;;
16099;SDS011;8154;50.830;12.082;2023-03-01T21:56:47;8.85;;;5.18;;
16099;SDS011;8154;50.830;12.082;2023-03-01T21:59:19;7.97;;;5.30;;
16099;SDS011;8154;50.830;12.082;2023-03-01T22:01:47;8.57;;;5.10;;
16099;SDS011;8154;50.830;12.082;2023-03-01T22:04:15;8.10;;;5.00;;
16099;SDS011;8154;50.830;12.082;2023-03-01T22:06:43;5.88;;;4.80;;
16099;SDS011;8154;50.830;12.082;2023-03-01T22:11:38;9.15;;;5.25;;
